createdAt,value
2022-09-03T00:01:01.834Z,100998.02
2022-09-03T00:03:40.037Z,100998.02
2022-09-03T00:06:21.161Z,100994.31
2022-09-03T00:08:53.769Z,100993.08
2022-09-03T00:11:23.804Z,100995.63
2022-09-03T00:14:03.282Z,100991.48
2022-09-03T00:16:50.876Z,100983.63
2022-09-03T00:19:23.270Z,100983.63
2022-09-03T00:21:55.745Z,100990.74
2022-09-03T00:24:27.114Z,100982.97
2022-09-03T00:26:59.372Z,100982.62
2022-09-03T00:29:49.510Z,100982.16
2022-09-03T00:32:22.744Z,100990.14
2022-09-03T00:34:56.919Z,100988.71
2022-09-03T00:37:28.091Z,100984.70
2022-09-03T00:39:59.301Z,100985.78
2022-09-03T00:42:49.970Z,100984.95
2022-09-03T00:45:34.576Z,100982.72
2022-09-03T00:48:12.803Z,100983.34
2022-09-03T00:51:00.613Z,100974.52
2022-09-03T00:53:33.056Z,100983.28
2022-09-03T00:56:22.410Z,100983.63
2022-09-03T00:59:01.717Z,100977.66
2022-09-03T01:01:37.320Z,100980.38
2022-09-03T01:04:31.388Z,100979.42
2022-09-03T01:07:16.060Z,100976.68
2022-09-03T01:10:19.094Z,100983.50
2022-09-03T01:12:51.654Z,100986.31
2022-09-03T01:15:27.860Z,100982.88
2022-09-03T01:18:12.546Z,100982.88
2022-09-03T01:21:06.405Z,100981.92
2022-09-03T01:23:41.761Z,100983.89
2022-09-03T01:26:38.516Z,100987.14
2022-09-03T01:29:35.764Z,100986.30
2022-09-03T01:32:10.090Z,100981.20
2022-09-03T01:34:40.535Z,100983.52
2022-09-03T01:37:24.955Z,100984.31
2022-09-03T01:40:03.302Z,100981.69
2022-09-03T01:42:44.906Z,100976.86
2022-09-03T01:45:29.613Z,100983.48
2022-09-03T01:48:34.105Z,100979.72
2022-09-03T01:51:12.830Z,100979.17
2022-09-03T01:54:21.440Z,100975.45
2022-09-03T01:57:35.335Z,100978.28
2022-09-03T02:00:00.367Z,100982.95
2022-09-03T02:02:30.951Z,100984.11
2022-09-03T02:05:09.427Z,100986.58
2022-09-03T02:07:41.901Z,100992.01
2022-09-03T02:10:17.449Z,100980.14
2022-09-03T02:12:55.221Z,100985.20
2022-09-03T02:15:26.232Z,100989.59
2022-09-03T02:17:57.488Z,100985.55
2022-09-03T02:20:28.279Z,100983.11
2022-09-03T02:22:59.112Z,100980.41
2022-09-03T02:25:34.659Z,100973.16
2022-09-03T02:28:11.213Z,100969.44
2022-09-03T02:30:37.811Z,100973.78
2022-09-03T02:33:07.660Z,100974.64
2022-09-03T02:35:37.251Z,100973.91
2022-09-03T02:38:15.592Z,100970.70
2022-09-03T02:40:45.871Z,100972.00
2022-09-03T02:43:18.608Z,100972.06
2022-09-03T02:45:49.856Z,100972.62
2022-09-03T02:48:21.951Z,100976.75
2022-09-03T02:50:51.877Z,100978.42
2022-09-03T02:53:21.770Z,100979.05
2022-09-03T02:55:51.209Z,100972.80
2022-09-03T02:58:21.171Z,100972.00
2022-09-03T03:00:50.849Z,100974.95
2022-09-03T03:03:20.506Z,100970.64
2022-09-03T03:05:51.916Z,100971.46
2022-09-03T03:08:23.988Z,100976.95
2022-09-03T03:10:54.150Z,100971.55
2022-09-03T03:13:24.003Z,100966.41
2022-09-03T03:15:55.055Z,100970.73
2022-09-03T03:18:24.941Z,100971.56
2022-09-03T03:20:54.568Z,100973.52
2022-09-03T03:23:23.849Z,100974.62
2022-09-03T03:25:53.095Z,100974.82
2022-09-03T03:28:22.535Z,100979.25
2022-09-03T03:30:53.061Z,100977.39
2022-09-03T03:33:22.628Z,100974.67
2022-09-03T03:35:53.609Z,100974.42
2022-09-03T03:38:23.022Z,100976.03
2022-09-03T03:40:52.310Z,100973.64
2022-09-03T03:43:21.683Z,100976.41
2022-09-03T03:46:00.846Z,100926.62
2022-09-03T03:48:30.153Z,100965.87
2022-09-03T03:51:05.756Z,100969.13
2022-09-03T03:53:36.694Z,100978.61
2022-09-03T03:56:09.726Z,100974.30
2022-09-03T03:58:41.734Z,100972.71
2022-09-03T04:01:14.296Z,100966.29
2022-09-03T04:03:43.078Z,100973.66
2022-09-03T04:06:14.068Z,100967.44
2022-09-03T04:08:45.832Z,100968.00
2022-09-03T04:11:18.165Z,100973.17
2022-09-03T04:13:48.345Z,100972.11
2022-09-03T04:16:20.816Z,100959.42
2022-09-03T04:18:52.039Z,100966.19
2022-09-03T04:21:24.432Z,100960.23
2022-09-03T04:23:55.525Z,100960.57
2022-09-03T04:26:29.611Z,100965.91
2022-09-03T04:29:10.184Z,100960.57
2022-09-03T04:31:41.717Z,100970.92
2022-09-03T04:34:11.210Z,100969.81
2022-09-03T04:36:40.545Z,100966.09
2022-09-03T04:39:09.818Z,100965.30
2022-09-03T04:41:39.469Z,100963.69
2022-09-03T04:44:08.755Z,100962.63
2022-09-03T04:46:39.371Z,100965.84
2022-09-03T04:49:09.868Z,100961.28
2022-09-03T04:51:39.272Z,100966.10
2022-09-03T04:54:10.395Z,100964.78
2022-09-03T04:56:40.737Z,100965.09
2022-09-03T04:59:11.214Z,100963.18
2022-09-03T05:01:41.575Z,100964.25
2022-09-03T05:04:11.070Z,100958.58
2022-09-03T05:06:40.391Z,100963.18
2022-09-03T05:09:09.801Z,100969.16
2022-09-03T05:11:39.094Z,100967.76
2022-09-03T05:14:10.129Z,100970.77
2022-09-03T05:16:39.896Z,100968.26
2022-09-03T05:19:09.705Z,100969.56
2022-09-03T05:21:40.470Z,100972.53
2022-09-03T05:24:11.450Z,100972.77
2022-09-03T05:26:41.428Z,100974.31
2022-09-03T05:29:10.844Z,100978.03
2022-09-03T05:31:40.659Z,100975.28
2022-09-03T05:34:16.605Z,100972.50
2022-09-03T05:36:41.449Z,100973.70
2022-09-03T05:39:10.776Z,100970.13
2022-09-03T05:41:40.394Z,100979.73
2022-09-03T05:44:10.092Z,100973.42
2022-09-03T05:46:39.554Z,100975.40
2022-09-03T05:49:09.210Z,100982.15
2022-09-03T05:51:42.709Z,100980.41
2022-09-03T05:54:12.328Z,100984.12
2022-09-03T05:56:42.822Z,100985.20
2022-09-03T05:59:13.892Z,100980.30
2022-09-03T06:01:50.978Z,100982.62
2022-09-03T06:04:17.413Z,100984.14
2022-09-03T06:06:48.593Z,100980.99
2022-09-03T06:09:20.478Z,100982.47
2022-09-03T06:11:50.807Z,100985.78
2022-09-03T06:14:23.836Z,100977.16
2022-09-03T06:16:53.466Z,100986.74
2022-09-03T06:19:23.121Z,100981.91
2022-09-03T06:21:52.479Z,100988.22
2022-09-03T06:24:26.268Z,100985.49
2022-09-03T06:26:56.132Z,100979.36
2022-09-03T06:29:25.531Z,100982.62
2022-09-03T06:31:55.993Z,100983.09
2022-09-03T06:34:27.266Z,100997.30
2022-09-03T06:36:57.578Z,101005.81
2022-09-03T06:39:27.217Z,100997.42
2022-09-03T06:41:56.785Z,100996.51
2022-09-03T06:44:27.769Z,100995.52
2022-09-03T06:46:58.853Z,100998.95
2022-09-03T06:49:28.214Z,101001.35
2022-09-03T06:51:57.727Z,101002.55
2022-09-03T06:54:26.985Z,100997.87
2022-09-03T06:56:56.902Z,100996.23
2022-09-03T06:59:26.835Z,100997.97
2022-09-03T07:01:58.276Z,100996.98
2022-09-03T07:04:27.586Z,100998.26
2022-09-03T07:06:58.725Z,100995.81
2022-09-03T07:09:28.077Z,101004.56
2022-09-03T07:11:57.449Z,101003.02
2022-09-03T07:14:26.792Z,101004.98
2022-09-03T07:16:56.755Z,101005.73
2022-09-03T07:19:26.015Z,101002.34
2022-09-03T07:21:55.297Z,100990.11
2022-09-03T07:24:25.027Z,101000.30
2022-09-03T07:26:55.036Z,101009.27
2022-09-03T07:29:24.586Z,101005.02
2022-09-03T07:31:53.924Z,101007.53
2022-09-03T07:34:27.262Z,101005.08
2022-09-03T07:36:56.664Z,101003.58
2022-09-03T07:39:26.023Z,101005.48
2022-09-03T07:41:55.348Z,101005.09
2022-09-03T07:44:25.055Z,100996.66
2022-09-03T07:46:54.424Z,100994.39
2022-09-03T07:49:23.781Z,101003.83
2022-09-03T07:51:55.860Z,101002.08
2022-09-03T07:54:27.046Z,101003.31
2022-09-03T07:56:57.536Z,101006.84
2022-09-03T07:59:26.937Z,101013.09
2022-09-03T08:01:56.580Z,100972.65
2022-09-03T08:04:26.012Z,101020.88
2022-09-03T08:06:57.081Z,101022.98
2022-09-03T08:09:26.409Z,101019.41
2022-09-03T08:11:55.740Z,101027.73
2022-09-03T08:14:25.010Z,101031.84
2022-09-03T08:16:54.899Z,101023.70
2022-09-03T08:19:24.144Z,101002.58
2022-09-03T08:21:53.659Z,101031.12
2022-09-03T08:24:24.894Z,101032.36
2022-09-03T08:26:54.239Z,101037.91
2022-09-03T08:29:24.062Z,101040.34
2022-09-03T08:31:54.163Z,101041.08
2022-09-03T08:34:24.056Z,101033.17
2022-09-03T08:36:54.642Z,101037.89
2022-09-03T08:39:23.981Z,101039.08
2022-09-03T08:41:56.544Z,101035.67
2022-09-03T08:44:39.059Z,101035.39
2022-09-03T08:47:26.923Z,101040.78
2022-09-03T08:50:02.395Z,101043.01
2022-09-03T08:52:34.670Z,101040.42
2022-09-03T08:55:18.959Z,101033.72
2022-09-03T08:57:57.893Z,101039.92
2022-09-03T09:00:30.557Z,101039.21
2022-09-03T09:03:31.782Z,101034.95
2022-09-03T09:06:38.919Z,101039.12
2022-09-03T09:09:14.698Z,101036.19
2022-09-03T09:12:11.055Z,101042.85
2022-09-03T09:15:08.102Z,101042.05
2022-09-03T09:17:51.183Z,101046.11
2022-09-03T09:20:26.601Z,101044.41
2022-09-03T09:22:59.025Z,101045.57
2022-09-03T09:25:27.830Z,101041.44
2022-09-03T09:28:24.016Z,101044.20
2022-09-03T09:30:55.691Z,101043.61
2022-09-03T09:33:25.869Z,101053.91
2022-09-03T09:35:55.168Z,101047.44
2022-09-03T09:38:38.708Z,101044.96
2022-09-03T09:41:20.251Z,101049.55
2022-09-03T09:43:51.552Z,101047.23
2022-09-03T09:46:27.265Z,101046.45
2022-09-03T09:48:58.887Z,101050.58
2022-09-03T09:51:32.385Z,101047.55
2022-09-03T09:54:07.394Z,101043.55
2022-09-03T09:56:36.924Z,101050.16
2022-09-03T09:59:11.219Z,101059.41
2022-09-03T10:01:45.627Z,101058.80
2022-09-03T10:04:32.385Z,101048.23
2022-09-03T10:07:07.882Z,101042.70
2022-09-03T10:09:37.200Z,101045.87
2022-09-03T10:12:15.793Z,101044.24
2022-09-03T10:15:00.196Z,101043.80
2022-09-03T10:17:47.135Z,101041.91
2022-09-03T10:20:31.507Z,101039.99
2022-09-03T10:23:16.305Z,101028.55
2022-09-03T10:26:09.746Z,101029.31
2022-09-03T10:28:41.788Z,101025.34
2022-09-03T10:31:27.067Z,101027.80
2022-09-03T10:34:14.521Z,101017.48
2022-09-03T10:36:52.603Z,101019.21
2022-09-03T10:39:42.901Z,101017.22
2022-09-03T10:42:37.431Z,101018.34
2022-09-03T10:45:24.693Z,101019.91
2022-09-03T10:48:05.991Z,101030.65
2022-09-03T10:50:48.834Z,101029.27
2022-09-03T10:53:49.725Z,101029.31
2022-09-03T10:56:22.790Z,101029.98
2022-09-03T10:59:11.902Z,101028.83
2022-09-03T11:02:05.495Z,101026.81
2022-09-03T11:04:47.005Z,101038.56
2022-09-03T11:07:19.050Z,101031.93
2022-09-03T11:10:08.831Z,101030.78
2022-09-03T11:12:41.254Z,101030.60
2022-09-03T11:15:16.771Z,101028.03
2022-09-03T11:17:52.143Z,101031.08
2022-09-03T11:20:23.480Z,101026.70
2022-09-03T11:22:55.653Z,101023.37
2022-09-03T11:25:28.694Z,101022.95
2022-09-03T11:28:11.689Z,101020.27
2022-09-03T11:30:53.144Z,101023.28
2022-09-03T11:33:25.247Z,101016.61
2022-09-03T11:36:01.573Z,101014.41
2022-09-03T11:38:34.614Z,101013.30
2022-09-03T11:41:07.201Z,101020.75
2022-09-03T11:43:37.826Z,101021.83
2022-09-03T11:46:16.488Z,101021.39
2022-09-03T11:49:00.521Z,101019.52
2022-09-03T11:51:33.876Z,101021.97
2022-09-03T11:54:09.720Z,101011.48
2022-09-03T11:56:39.017Z,101013.41
2022-09-03T11:59:17.668Z,101014.95
2022-09-03T12:01:55.012Z,101008.78
2022-09-03T12:04:28.339Z,101004.52
2022-09-03T12:07:23.542Z,101010.05
2022-09-03T12:10:13.229Z,101009.22
2022-09-03T12:12:54.879Z,101012.02
2022-09-03T12:15:27.828Z,101011.31
2022-09-03T12:18:19.890Z,101011.12
2022-09-03T12:20:55.934Z,101012.55
2022-09-03T12:23:44.757Z,101005.56
2022-09-03T12:26:16.368Z,101004.13
2022-09-03T12:28:48.765Z,101011.56
2022-09-03T12:31:24.985Z,101005.48
2022-09-03T12:33:58.136Z,101000.95
2022-09-03T12:36:30.078Z,100991.83
2022-09-03T12:39:18.202Z,100981.08
2022-09-03T12:41:33.718Z,100990.02
2022-09-03T12:44:03.784Z,100992.31
2022-09-03T12:46:35.078Z,100989.73
2022-09-03T12:51:53.304Z,101006.73
2022-09-03T12:54:17.680Z,100992.95
2022-09-03T12:56:49.705Z,100988.16
2022-09-03T12:59:20.761Z,100980.92
2022-09-03T13:02:01.801Z,100988.22
2022-09-03T13:04:35.866Z,100984.89
2022-09-03T13:07:08.338Z,100983.09
2022-09-03T13:09:39.458Z,100980.39
2022-09-03T13:12:10.865Z,100976.67
2022-09-03T13:14:44.622Z,100982.73
2022-09-03T13:17:38.053Z,100981.16
2022-09-03T13:20:30.194Z,100974.95
2022-09-03T13:23:09.182Z,100976.89
2022-09-03T13:26:06.258Z,100971.20
2022-09-03T13:28:58.952Z,100971.81
2022-09-03T13:31:34.248Z,100975.95
2022-09-03T13:34:12.687Z,100971.09
2022-09-03T13:36:53.510Z,100976.02
2022-09-03T13:39:55.821Z,100970.08
2022-09-03T13:42:33.903Z,100969.66
2022-09-03T13:45:08.710Z,100969.20
2022-09-03T13:47:42.688Z,100965.05
2022-09-03T13:50:23.231Z,100970.02
2022-09-03T13:53:01.894Z,100963.23
2022-09-03T13:55:51.708Z,100972.80
2022-09-03T13:58:24.384Z,100968.02
2022-09-03T14:01:07.547Z,100972.20
2022-09-03T14:03:48.998Z,100963.69
2022-09-03T14:06:32.460Z,100963.69
2022-09-03T14:09:30.618Z,100970.78
2022-09-03T14:12:08.809Z,100970.00
2022-09-03T14:14:55.178Z,100968.97
2022-09-03T14:17:51.891Z,100973.89
2022-09-03T14:20:36.410Z,100974.39
2022-09-03T14:23:35.996Z,100976.75
2022-09-03T14:26:07.712Z,100978.14
2022-09-03T14:28:39.177Z,100972.73
2022-09-03T14:31:28.345Z,100975.38
2022-09-03T14:34:00.798Z,100974.37
2022-09-03T14:36:33.504Z,100974.95
2022-09-03T14:39:08.543Z,100973.98
2022-09-03T14:41:56.491Z,100966.02
2022-09-03T14:45:03.267Z,100971.80
2022-09-03T14:47:58.643Z,100975.05
2022-09-03T14:50:58.357Z,100966.27
2022-09-03T14:53:37.255Z,100969.17
2022-09-03T14:56:24.961Z,100973.20
2022-09-03T14:58:58.681Z,100970.73
2022-09-03T15:01:39.460Z,100967.31
2022-09-03T15:04:19.698Z,100960.34
2022-09-03T15:06:52.095Z,100962.53
2022-09-03T15:09:33.651Z,100968.16
2022-09-03T15:12:06.059Z,100968.39
2022-09-03T15:14:44.335Z,100962.84
2022-09-03T15:17:33.578Z,100973.54
2022-09-03T15:20:24.518Z,100967.15
2022-09-03T15:23:14.805Z,100960.14
2022-09-03T15:26:10.041Z,100968.19
2022-09-03T15:29:16.084Z,100969.22
2022-09-03T15:32:12.975Z,100970.64
2022-09-03T15:34:59.191Z,100972.72
2022-09-03T15:37:31.504Z,100976.77
2022-09-03T15:40:10.313Z,100972.38
2022-09-03T15:42:39.866Z,100966.45
2022-09-03T15:45:24.544Z,100972.09
2022-09-03T15:47:57.022Z,100971.55
2022-09-03T15:50:35.518Z,100973.80
2022-09-03T15:53:08.457Z,100976.63
2022-09-03T15:55:43.205Z,100964.05
2022-09-03T15:58:24.374Z,100968.95
2022-09-03T16:01:14.960Z,100965.25
2022-09-03T16:04:20.772Z,100961.63
2022-09-03T16:07:05.178Z,100959.99
2022-09-03T16:09:57.506Z,100967.52
2022-09-03T16:12:29.527Z,100976.63
2022-09-03T16:15:23.414Z,100969.25
2022-09-03T16:18:12.237Z,100976.03
2022-09-03T16:21:00.116Z,100969.85
2022-09-03T16:23:35.541Z,100966.47
2022-09-03T16:26:08.144Z,100974.31
2022-09-03T16:28:52.869Z,100971.30
2022-09-03T16:31:58.375Z,100976.89
2022-09-03T16:34:54.755Z,100978.30
2022-09-03T16:37:44.006Z,100973.24
2022-09-03T16:40:35.891Z,100971.84
2022-09-03T16:43:41.690Z,100975.52
2022-09-03T16:46:17.217Z,100977.94
2022-09-03T16:48:58.720Z,100972.52
2022-09-03T16:51:37.104Z,100977.03
2022-09-03T16:54:19.891Z,100972.36
2022-09-03T16:57:07.271Z,100983.48
2022-09-03T17:00:10.148Z,100976.37
2022-09-03T17:02:49.819Z,100985.09
2022-09-03T17:05:37.421Z,100987.03
2022-09-03T17:08:22.252Z,100985.52
2022-09-03T17:11:22.020Z,100978.61
2022-09-03T17:13:54.613Z,100986.75
2022-09-03T17:16:33.093Z,100995.43
2022-09-03T17:19:20.448Z,100994.64
2022-09-03T17:22:17.167Z,101001.59
2022-09-03T17:25:01.704Z,100995.45
2022-09-03T17:27:50.542Z,101001.58
2022-09-03T17:30:24.105Z,101003.47
2022-09-03T17:33:01.238Z,101008.98
2022-09-03T17:35:54.395Z,100999.41
2022-09-03T17:38:45.543Z,101006.68
2022-09-03T17:41:52.047Z,101010.07
2022-09-03T17:44:51.620Z,101018.02
2022-09-03T17:47:32.980Z,101019.55
2022-09-03T17:50:11.690Z,101023.03
2022-09-03T17:52:43.664Z,101022.38
2022-09-03T17:55:39.547Z,101023.70
2022-09-03T17:58:23.706Z,101025.58
2022-09-03T18:01:14.368Z,101026.08
2022-09-03T18:04:04.957Z,101032.41
2022-09-03T18:06:47.210Z,101034.02
2022-09-03T18:09:38.124Z,101035.95
2022-09-03T18:12:16.218Z,101039.52
2022-09-03T18:14:56.873Z,101039.27
2022-09-03T18:17:38.402Z,101039.38
2022-09-03T18:20:27.871Z,101050.03
2022-09-03T18:23:24.099Z,101050.84
2022-09-03T18:26:16.217Z,101056.29
2022-09-03T18:29:12.815Z,101059.38
2022-09-03T18:32:00.092Z,101064.02
2022-09-03T18:34:52.328Z,101062.30
2022-09-03T18:37:45.157Z,101068.98
2022-09-03T18:40:42.151Z,101073.30
2022-09-03T18:43:53.400Z,101082.67
2022-09-03T18:50:13.369Z,101087.02
2022-09-03T18:53:07.576Z,101092.15
2022-09-03T18:56:15.595Z,101104.72
2022-09-03T18:59:29.908Z,101108.75
2022-09-03T19:02:17.650Z,101108.52
2022-09-03T19:05:14.196Z,101110.08
2022-09-03T19:08:16.263Z,101109.50
2022-09-03T19:11:11.708Z,101114.03
2022-09-03T19:14:00.313Z,101118.75
2022-09-03T19:17:07.208Z,101119.55
2022-09-03T19:20:09.213Z,101116.44
2022-09-03T19:22:58.551Z,101124.79
2022-09-03T19:25:47.985Z,101120.81
2022-09-03T19:28:39.725Z,101127.73
2022-09-03T19:31:35.585Z,101126.18
2022-09-03T19:34:59.018Z,101127.76
2022-09-03T19:37:56.248Z,101126.72
2022-09-03T19:41:18.310Z,101124.89
2022-09-03T19:44:08.447Z,101132.86
2022-09-03T19:47:07.895Z,101132.99
2022-09-03T19:50:21.137Z,101143.53
2022-09-03T19:53:19.411Z,101156.64
2022-09-03T19:56:14.632Z,101160.31
2022-09-03T19:59:10.677Z,101157.80
2022-09-03T20:01:58.110Z,101149.98
2022-09-03T20:04:59.880Z,101160.82
2022-09-03T20:07:47.070Z,101150.91
2022-09-03T20:10:22.999Z,101154.07
2022-09-03T20:12:58.492Z,101160.20
2022-09-03T20:15:31.098Z,101154.98
2022-09-03T20:18:18.109Z,101159.89
2022-09-03T20:21:02.560Z,101156.88
2022-09-03T20:23:54.289Z,101166.16
2022-09-03T20:26:45.953Z,101165.44
2022-09-03T20:29:27.256Z,101167.72
2022-09-03T20:32:14.372Z,101172.45
2022-09-03T20:34:58.912Z,101174.91
2022-09-03T20:37:31.456Z,101176.70
2022-09-03T20:40:06.188Z,101177.06
2022-09-03T20:42:55.125Z,101176.20
2022-09-03T20:45:27.228Z,101174.21
2022-09-03T20:48:19.395Z,101183.58
2022-09-03T20:51:01.205Z,101182.08
2022-09-03T20:53:57.672Z,101185.45
2022-09-03T20:56:36.258Z,101189.09
2022-09-03T20:59:23.754Z,101192.77
2022-09-03T21:01:56.299Z,101195.51
2022-09-03T21:04:40.640Z,101198.73
2022-09-03T21:07:15.797Z,101194.63
2022-09-03T21:10:03.347Z,101190.30
2022-09-03T21:12:35.931Z,101194.75
2022-09-03T21:15:06.148Z,101196.39
2022-09-03T21:17:54.891Z,101197.59
2022-09-03T21:20:39.017Z,101201.27
2022-09-03T21:23:34.859Z,101197.09
2022-09-03T21:26:21.562Z,101203.06
2022-09-03T21:29:00.017Z,101201.69
2022-09-03T21:31:41.720Z,101201.52
2022-09-03T21:34:14.288Z,101202.98
2022-09-03T21:36:43.634Z,101205.05
2022-09-03T21:39:31.222Z,101201.20
2022-09-03T21:42:06.455Z,101195.34
2022-09-03T21:44:44.635Z,101198.94
2022-09-03T21:47:18.770Z,101202.81
2022-09-03T21:50:03.272Z,101201.77
2022-09-03T21:52:45.333Z,101200.08
2022-09-03T21:55:32.846Z,101200.88
2022-09-03T21:58:32.679Z,101207.41
2022-09-03T22:01:07.935Z,101198.87
2022-09-03T22:03:37.247Z,101209.57
2022-09-03T22:06:09.678Z,101209.26
2022-09-03T22:08:43.873Z,101207.64
2022-09-03T22:11:33.188Z,101204.83
2022-09-03T22:14:11.280Z,101213.00
2022-09-03T22:16:55.803Z,101207.30
2022-09-03T22:19:25.466Z,101209.77
2022-09-03T22:21:59.850Z,101210.69
2022-09-03T22:24:33.316Z,101216.47
2022-09-03T22:27:12.237Z,101209.23
2022-09-03T22:29:45.210Z,101215.64
2022-09-03T22:32:26.443Z,101212.99
2022-09-03T22:35:14.219Z,101223.65
2022-09-03T22:37:58.657Z,101224.78
2022-09-03T22:40:50.698Z,101236.81
2022-09-03T22:43:41.421Z,101237.06
2022-09-03T22:46:15.827Z,101227.98
2022-09-03T22:49:13.913Z,101234.00
2022-09-03T22:51:49.088Z,101223.31
2022-09-03T22:54:48.666Z,101219.59
2022-09-03T22:57:19.835Z,101228.90
2022-09-03T22:59:58.267Z,101229.68
2022-09-03T23:02:29.760Z,101226.84
2022-09-03T23:05:17.703Z,101231.07
2022-09-03T23:07:55.567Z,101235.53
2022-09-03T23:10:44.065Z,101242.76
2022-09-03T23:13:19.657Z,101247.59
2022-09-03T23:15:52.346Z,101252.47
2022-09-03T23:18:26.205Z,101256.30
2022-09-03T23:21:20.289Z,101264.78
2022-09-03T23:24:02.633Z,101253.86
2022-09-03T23:26:43.985Z,101254.36
2022-09-03T23:29:31.252Z,101251.21
2022-09-03T23:32:01.427Z,101254.22
2022-09-03T23:34:30.737Z,101257.85
2022-09-03T23:37:40.049Z,101257.68
2022-09-03T23:40:17.101Z,101258.20
2022-09-03T23:43:19.631Z,101256.84
2022-09-03T23:46:25.668Z,101255.20
2022-09-03T23:49:13.274Z,101262.64
2022-09-03T23:52:03.604Z,101264.66
2022-09-03T23:54:57.148Z,101269.80
2022-09-03T23:57:32.429Z,101273.64
